Time;durP1;ratioP1;P1;durP2;ratioP2;P2;SDS_P1;SDS_P2;PMS_P1;PMS_P2;Temp;Humidity;BMP_temperature;BMP_pressure;BME280_temperature;BME280_humidity;BME280_pressure;Samples;Min_cycle;Max_cycle;Signal;HPM_P1;HPM_P2
2021/01/20 00:01:56;;;;;;;6.85;2.78;;;7.20;99.90;;;;;;4163348;28;20033;-83
2021/01/20 00:03:57;;;;;;;10.45;3.30;;;7.10;99.90;;;;;;4163269;28;20056;-83
2021/01/20 00:05:58;;;;;;;6.43;3.05;;;7.10;99.90;;;;;;4166265;28;20056;-84
2021/01/20 00:08:00;;;;;;;7.53;2.60;;;7.10;99.90;;;;;;4178418;28;20112;-83
2021/01/20 00:10:00;;;;;;;6.45;2.92;;;7.10;99.90;;;;;;4165464;28;20032;-83
2021/01/20 00:12:01;;;;;;;10.13;3.28;;;7.10;99.90;;;;;;4149867;28;20113;-83
2021/01/20 00:14:07;;;;;;;8.98;3.10;;;7.10;99.90;;;;;;4162549;28;20061;-83
2021/01/20 00:16:07;;;;;;;12.25;3.42;;;7.10;99.90;;;;;;4169232;28;20853;-83
2021/01/20 00:18:15;;;;;;;8.32;3.00;;;7.10;99.90;;;;;;4189996;28;20592;-83
2021/01/20 00:20:17;;;;;;;7.85;3.08;;;7.10;99.90;;;;;;4175474;28;20582;-83
2021/01/20 00:22:18;;;;;;;6.18;2.88;;;7.10;99.90;;;;;;4145461;28;20042;-83
2021/01/20 00:24:19;;;;;;;8.80;2.78;;;7.10;99.90;;;;;;4144429;28;20034;-83
2021/01/20 00:26:22;;;;;;;6.05;2.63;;;7.10;99.90;;;;;;4176261;28;20033;-83
2021/01/20 00:28:22;;;;;;;6.15;2.83;;;7.00;99.90;;;;;;4174465;28;20094;-83
2021/01/20 00:30:25;;;;;;;7.13;3.38;;;7.10;99.90;;;;;;4160911;28;20049;-83
2021/01/20 00:32:25;;;;;;;9.13;3.25;;;7.00;99.90;;;;;;4161734;28;20041;-83
2021/01/20 00:34:41;;;;;;;7.65;2.90;;;7.00;99.90;;;;;;4161115;28;20402;-83
2021/01/20 00:36:42;;;;;;;6.47;2.92;;;7.00;99.90;;;;;;4176398;28;20116;-83
2021/01/20 00:38:45;;;;;;;7.10;3.50;;;7.00;99.90;;;;;;4162684;28;20044;-83
2021/01/20 00:40:45;;;;;;;;;;;7.00;99.90;;;;;;4178240;28;20040;-83
2021/01/20 00:42:46;;;;;;;7.03;2.92;;;7.00;99.90;;;;;;4161166;28;20514;-83
2021/01/20 00:44:46;;;;;;;7.47;3.30;;;7.00;99.90;;;;;;4170152;28;20037;-83
2021/01/20 00:46:47;;;;;;;9.00;3.45;;;7.00;99.90;;;;;;4161735;28;20042;-83
2021/01/20 00:48:47;;;;;;;8.00;3.67;;;7.00;99.90;;;;;;4162978;28;20087;-83
2021/01/20 00:50:57;;;;;;;5.95;3.33;;;7.00;99.90;;;;;;4192855;28;20500;-83
2021/01/20 00:52:58;;;;;;;8.60;3.25;;;7.00;99.90;;;;;;4162818;28;20053;-83
2021/01/20 00:55:06;;;;;;;7.05;3.55;;;6.90;99.90;;;;;;4170268;28;20040;-83
2021/01/20 00:57:07;;;;;;;7.35;3.42;;;7.00;99.90;;;;;;4145949;28;20080;-84
2021/01/20 00:59:15;;;;;;;11.27;4.32;;;7.00;99.90;;;;;;4162058;28;20493;-83
2021/01/20 01:01:16;;;;;;;8.55;3.75;;;7.00;99.90;;;;;;4168837;28;20040;-83
2021/01/20 01:03:16;;;;;;;9.02;3.25;;;7.00;99.90;;;;;;4162148;28;20545;-83
2021/01/20 01:05:17;;;;;;;9.95;3.88;;;7.00;99.90;;;;;;4171876;28;20056;-83
2021/01/20 01:07:18;;;;;;;9.48;4.15;;;7.00;99.90;;;;;;4177717;28;20033;-84
2021/01/20 01:09:19;;;;;;;8.48;4.30;;;6.90;99.90;;;;;;4145548;28;20030;-83
2021/01/20 01:11:20;;;;;;;9.23;3.88;;;7.00;99.90;;;;;;4152587;28;20463;-83
2021/01/20 01:13:21;;;;;;;7.38;3.97;;;7.00;99.90;;;;;;4160977;28;20042;-83
2021/01/20 01:15:22;;;;;;;7.18;3.90;;;7.00;99.90;;;;;;4177847;28;20040;-83
2021/01/20 01:17:22;;;;;;;10.00;4.00;;;7.00;99.90;;;;;;4155004;28;20129;-83
2021/01/20 01:19:25;;;;;;;10.05;4.10;;;7.00;99.90;;;;;;4164045;28;20087;-83
2021/01/20 01:21:25;;;;;;;12.30;4.32;;;6.90;99.90;;;;;;4178081;28;20037;-83
2021/01/20 01:23:26;;;;;;;9.38;4.38;;;6.90;99.90;;;;;;4145943;28;20045;-83
2021/01/20 01:25:34;;;;;;;8.40;4.32;;;6.90;99.90;;;;;;4156135;28;20045;-84
2021/01/20 01:27:35;;;;;;;7.32;3.83;;;7.00;99.90;;;;;;4150241;28;20030;-83
2021/01/20 01:29:56;;;;;;;8.20;4.00;;;7.00;99.90;;;;;;4147267;28;20414;-83
2021/01/20 01:31:56;;;;;;;6.13;3.75;;;6.90;99.90;;;;;;4174960;28;20605;-83
2021/01/20 01:33:57;;;;;;;9.23;3.78;;;7.00;99.90;;;;;;4164861;28;20084;-83
2021/01/20 01:35:58;;;;;;;9.07;4.32;;;7.00;99.90;;;;;;4180798;28;20504;-83
2021/01/20 01:37:59;;;;;;;8.80;4.22;;;7.00;99.90;;;;;;4164082;28;20544;-83
2021/01/20 01:40:00;;;;;;;10.13;4.22;;;7.00;99.90;;;;;;4152256;28;20033;-83
2021/01/20 01:42:04;;;;;;;7.82;3.55;;;7.10;99.90;;;;;;4172063;28;20030;-84
2021/01/20 01:44:05;;;;;;;7.85;4.18;;;7.10;99.90;;;;;;4165451;28;20037;-83
2021/01/20 01:46:06;;;;;;;11.07;4.03;;;7.10;99.90;;;;;;4147577;28;20034;-83
2021/01/20 01:48:08;;;;;;;7.25;3.58;;;7.10;99.90;;;;;;4163079;28;20488;-83
2021/01/20 01:50:12;;;;;;;7.40;4.07;;;7.10;99.90;;;;;;4147606;28;20034;-83
2021/01/20 01:52:35;;;;;;;8.27;4.35;;;7.20;99.90;;;;;;4173021;28;20489;-83
2021/01/20 01:54:35;;;;;;;9.27;3.80;;;7.20;99.90;;;;;;4154604;28;20478;-83
2021/01/20 01:56:45;;;;;;;6.00;3.65;;;7.20;99.90;;;;;;4155681;28;20116;-83
2021/01/20 01:58:51;;;;;;;7.72;3.60;;;7.20;99.90;;;;;;4152780;28;20072;-84
2021/01/20 02:01:00;;;;;;;12.57;3.92;;;7.20;99.90;;;;;;4172445;28;20037;-84
2021/01/20 02:03:01;;;;;;;7.25;3.83;;;7.20;99.90;;;;;;4173948;28;20100;-84
2021/01/20 02:05:03;;;;;;;7.90;3.80;;;7.30;99.90;;;;;;4167021;28;20026;-83
2021/01/20 02:07:04;;;;;;;9.80;4.10;;;7.30;99.90;;;;;;4156551;28;20048;-83
2021/01/20 02:09:06;;;;;;;9.00;3.97;;;7.30;99.90;;;;;;4150258;28;20029;-83
2021/01/20 02:11:25;;;;;;;6.95;3.70;;;7.40;99.90;;;;;;4188579;28;20058;-83
2021/01/20 02:13:39;;;;;;;8.52;3.97;;;7.40;99.90;;;;;;4147303;28;20696;-83
2021/01/20 02:15:47;;;;;;;5.85;3.78;;;7.40;99.90;;;;;;4154656;28;20026;-83
2021/01/20 02:17:59;;;;;;;7.60;3.47;;;7.40;99.90;;;;;;4163382;28;20117;-83
2021/01/20 02:20:28;;;;;;;8.52;3.80;;;7.40;99.90;;;;;;4159544;28;20028;-83
2021/01/20 02:22:40;;;;;;;5.82;3.42;;;7.50;99.90;;;;;;4186838;28;20043;-83
2021/01/20 02:25:04;;;;;;;7.53;3.70;;;7.50;99.90;;;;;;4164969;28;20583;-83
2021/01/20 02:27:13;;;;;;;10.00;3.75;;;7.50;99.90;;;;;;4165575;28;20044;-83
2021/01/20 02:29:32;;;;;;;8.68;4.07;;;7.50;99.90;;;;;;4146988;28;20034;-83
2021/01/20 02:31:35;;;;;;;9.18;3.90;;;7.50;99.90;;;;;;4145412;28;20041;-83
2021/01/20 02:33:37;;;;;;;9.38;3.65;;;7.60;99.90;;;;;;4165633;28;20050;-83
2021/01/20 02:35:41;;;;;;;7.25;3.47;;;7.60;99.90;;;;;;4160632;28;20030;-83
2021/01/20 02:37:49;;;;;;;9.98;3.75;;;7.60;99.90;;;;;;4153503;28;20063;-84
2021/01/20 02:39:50;;;;;;;9.90;4.43;;;7.60;99.90;;;;;;4149092;28;20041;-84
2021/01/20 02:42:06;;;;;;;9.90;3.97;;;7.60;99.90;;;;;;4174369;28;20029;-83
2021/01/20 02:44:07;;;;;;;6.78;3.38;;;7.70;99.90;;;;;;4147098;28;20038;-83
2021/01/20 02:46:20;;;;;;;9.13;3.50;;;7.70;99.90;;;;;;4168368;28;20040;-83
2021/01/20 02:48:21;;;;;;;6.25;3.15;;;7.70;99.90;;;;;;4166595;28;20037;-83
2021/01/20 02:50:22;;;;;;;5.82;3.35;;;7.70;99.90;;;;;;4169490;28;20029;-83
2021/01/20 02:52:27;;;;;;;7.55;3.15;;;7.70;99.90;;;;;;4156915;28;20033;-83
2021/01/20 02:54:28;;;;;;;6.97;2.88;;;7.80;99.90;;;;;;4163355;28;20120;-83
2021/01/20 02:56:32;;;;;;;6.68;3.15;;;7.80;99.90;;;;;;4163367;28;20103;-83
2021/01/20 02:58:35;;;;;;;7.05;3.35;;;7.80;99.90;;;;;;4154112;28;20037;-83
2021/01/20 03:00:39;;;;;;;6.28;2.92;;;7.80;99.90;;;;;;4163401;28;20037;-83
2021/01/20 03:02:42;;;;;;;6.22;3.03;;;7.90;99.90;;;;;;4150578;28;20521;-83
2021/01/20 03:04:46;;;;;;;4.63;2.35;;;7.90;99.90;;;;;;4149374;28;20102;-83
2021/01/20 03:06:47;;;;;;;5.60;2.53;;;7.90;99.90;;;;;;4171324;28;20040;-83
2021/01/20 03:08:49;;;;;;;5.22;2.58;;;7.90;99.90;;;;;;4163563;28;20037;-83
2021/01/20 03:10:49;;;;;;;8.02;2.92;;;7.90;99.90;;;;;;4158135;28;20044;-83
2021/01/20 03:12:50;;;;;;;4.95;2.75;;;7.90;99.90;;;;;;4178749;28;20029;-83
2021/01/20 03:14:54;;;;;;;5.95;2.58;;;8.00;99.90;;;;;;4161646;28;20124;-83
2021/01/20 03:16:55;;;;;;;5.70;2.83;;;8.00;99.90;;;;;;4179043;28;20491;-83
2021/01/20 03:18:56;;;;;;;4.72;2.78;;;8.00;99.90;;;;;;4162857;28;20124;-83
2021/01/20 03:20:57;;;;;;;4.60;2.67;;;8.00;99.90;;;;;;4181226;28;20047;-83
2021/01/20 03:22:58;;;;;;;5.53;2.78;;;8.00;99.90;;;;;;4154473;28;20026;-83
2021/01/20 03:25:01;;;;;;;4.63;2.88;;;8.10;99.90;;;;;;4146459;28;20033;-83
2021/01/20 03:27:01;;;;;;;5.30;2.50;;;8.10;99.90;;;;;;4146860;28;20112;-83
2021/01/20 03:29:03;;;;;;;5.50;2.70;;;8.10;99.90;;;;;;4163340;28;20593;-83
2021/01/20 03:31:03;;;;;;;5.35;3.00;;;8.10;99.90;;;;;;4146169;28;20859;-83
2021/01/20 03:33:10;;;;;;;5.00;2.55;;;8.10;99.90;;;;;;4178591;28;20090;-83
2021/01/20 03:35:11;;;;;;;4.28;2.58;;;8.10;99.90;;;;;;4162805;28;20033;-83
2021/01/20 03:37:12;;;;;;;6.78;2.95;;;8.20;99.90;;;;;;4162617;28;20033;-84
2021/01/20 03:39:12;;;;;;;5.32;2.95;;;8.20;99.90;;;;;;4177486;28;22342;-84
2021/01/20 03:41:13;;;;;;;4.65;2.78;;;8.20;99.90;;;;;;4153473;28;20038;-84
2021/01/20 03:43:14;;;;;;;5.80;2.55;;;8.20;99.90;;;;;;4170471;28;20037;-84
2021/01/20 03:45:14;;;;;;;7.97;2.70;;;8.20;99.90;;;;;;4146405;28;20030;-84
2021/01/20 03:47:15;;;;;;;7.07;2.70;;;8.20;99.90;;;;;;4159116;28;20041;-84
2021/01/20 03:49:16;;;;;;;11.20;2.70;;;8.20;99.90;;;;;;4165265;28;20558;-83
2021/01/20 03:51:17;;;;;;;5.72;2.70;;;8.30;99.90;;;;;;4164520;28;20142;-83
2021/01/20 03:53:17;;;;;;;5.50;2.67;;;8.30;99.90;;;;;;4170831;28;20025;-83
2021/01/20 03:55:33;;;;;;;6.35;2.80;;;8.30;99.90;;;;;;4145397;28;20502;-83
2021/01/20 03:57:34;;;;;;;5.95;3.15;;;8.30;99.90;;;;;;4170419;28;20397;-83
2021/01/20 03:59:34;;;;;;;8.18;2.60;;;8.30;99.90;;;;;;4146408;28;20038;-83
2021/01/20 04:01:35;;;;;;;10.20;2.70;;;8.30;99.90;;;;;;4161983;28;20041;-83
2021/01/20 04:03:36;;;;;;;4.25;2.30;;;8.30;99.90;;;;;;4170762;28;22140;-83
2021/01/20 04:05:36;;;;;;;5.35;2.78;;;8.30;99.90;;;;;;4162423;28;20049;-83
2021/01/20 04:07:37;;;;;;;4.80;2.78;;;8.30;99.90;;;;;;4146055;28;20105;-83
2021/01/20 04:09:37;;;;;;;5.20;2.50;;;8.40;99.90;;;;;;4161877;28;20030;-83
2021/01/20 04:11:38;;;;;;;6.30;2.67;;;8.40;99.90;;;;;;4145578;28;20089;-83
2021/01/20 04:13:39;;;;;;;5.57;2.67;;;8.40;99.90;;;;;;4162258;28;20036;-83
2021/01/20 04:15:39;;;;;;;14.63;2.92;;;8.40;99.90;;;;;;4146059;28;20022;-83
2021/01/20 04:17:40;;;;;;;3.47;2.28;;;8.40;99.90;;;;;;4170142;28;20178;-83
2021/01/20 04:19:40;;;;;;;5.07;2.75;;;8.40;99.90;;;;;;4179202;28;20025;-84
2021/01/20 04:21:41;;;;;;;4.07;2.40;;;8.40;99.90;;;;;;4167130;28;20077;-84
2021/01/20 04:23:41;;;;;;;5.05;2.60;;;8.40;99.90;;;;;;4162927;28;20543;-84
2021/01/20 04:25:42;;;;;;;5.65;3.00;;;8.40;99.90;;;;;;4160167;28;20117;-84
2021/01/20 04:27:43;;;;;;;4.97;2.50;;;8.40;99.90;;;;;;4144823;28;20037;-84
2021/01/20 04:29:47;;;;;;;3.97;2.42;;;8.40;99.90;;;;;;4169257;28;20026;-84
2021/01/20 04:31:47;;;;;;;8.95;3.20;;;8.40;99.90;;;;;;4161406;28;20085;-84
2021/01/20 04:33:48;;;;;;;3.28;2.22;;;8.30;99.90;;;;;;4145602;28;20045;-84
2021/01/20 04:35:48;;;;;;;4.60;2.50;;;8.40;99.90;;;;;;4154123;28;20496;-84
2021/01/20 04:37:49;;;;;;;4.28;2.80;;;8.40;99.90;;;;;;4162810;28;20042;-84
2021/01/20 04:39:49;;;;;;;4.63;2.80;;;8.30;99.90;;;;;;4171708;28;20095;-84
2021/01/20 04:41:51;;;;;;;5.32;2.65;;;8.30;99.90;;;;;;4161614;28;20094;-84
2021/01/20 04:43:51;;;;;;;5.95;2.97;;;8.40;99.90;;;;;;4147894;28;20042;-83
2021/01/20 04:45:53;;;;;;;5.55;2.42;;;8.40;99.90;;;;;;4153796;28;20050;-83
2021/01/20 04:47:55;;;;;;;3.55;2.33;;;8.30;99.90;;;;;;4159465;28;20430;-83
2021/01/20 04:49:58;;;;;;;4.32;2.50;;;8.30;99.90;;;;;;4164729;28;20536;-83
2021/01/20 04:52:21;;;;;;;6.05;2.53;;;8.40;99.90;;;;;;4157527;28;20719;-83
2021/01/20 04:54:23;;;;;;;6.47;2.90;;;8.30;99.90;;;;;;4158996;28;20366;-84
2021/01/20 04:56:23;;;;;;;4.43;2.78;;;8.40;99.90;;;;;;4161283;28;20065;-84
2021/01/20 04:58:43;;;;;;;5.07;2.33;;;8.40;99.90;;;;;;4147900;28;20092;-84
2021/01/20 05:00:43;;;;;;;6.25;2.70;;;8.40;99.90;;;;;;4148912;28;20691;-84
2021/01/20 05:02:45;;;;;;;5.90;2.85;;;8.40;99.90;;;;;;4165002;28;20049;-84
2021/01/20 05:04:46;;;;;;;6.65;3.03;;;8.40;99.90;;;;;;4148033;28;20030;-84
2021/01/20 05:06:50;;;;;;;4.90;2.70;;;8.50;99.90;;;;;;4160112;28;20084;-83
2021/01/20 05:09:03;;;;;;;5.03;2.65;;;8.50;99.90;;;;;;4175319;28;20029;-83
2021/01/20 05:11:04;;;;;;;5.82;2.60;;;8.50;99.90;;;;;;4164244;28;20108;-83
2021/01/20 05:13:26;;;;;;;5.30;2.70;;;8.50;99.90;;;;;;4148663;28;20026;-84
2021/01/20 05:15:32;;;;;;;4.35;2.47;;;8.50;99.90;;;;;;4155106;28;20097;-84
2021/01/20 05:17:36;;;;;;;5.85;2.53;;;8.50;99.90;;;;;;4164893;28;20030;-84
2021/01/20 05:19:39;;;;;;;3.95;2.55;;;8.50;99.90;;;;;;4152970;28;20042;-84
2021/01/20 05:22:08;;;;;;;5.05;2.90;;;8.50;99.90;;;;;;4194856;28;20028;-84
2021/01/20 05:24:20;;;;;;;4.47;2.58;;;8.60;99.90;;;;;;4160051;28;20411;-84
2021/01/20 05:26:25;;;;;;;6.18;2.95;;;8.60;99.90;;;;;;4164633;28;20057;-84
2021/01/20 05:28:35;;;;;;;5.13;2.53;;;8.60;99.90;;;;;;4163189;28;20474;-84
2021/01/20 05:30:47;;;;;;;4.60;2.45;;;8.70;99.90;;;;;;4150115;28;20038;-84
2021/01/20 05:32:59;;;;;;;4.78;2.58;;;8.60;99.90;;;;;;4163780;28;20059;-84
2021/01/20 05:35:06;;;;;;;4.17;2.77;;;8.70;99.90;;;;;;4181182;28;20033;-84
2021/01/20 05:37:14;;;;;;;4.72;2.55;;;8.70;99.90;;;;;;4146554;28;20154;-84
2021/01/20 05:39:18;;;;;;;3.55;2.20;;;8.70;99.90;;;;;;4180873;28;20476;-84
2021/01/20 05:41:22;;;;;;;4.35;1.90;;;8.80;99.90;;;;;;4147399;28;20494;-84
2021/01/20 05:43:23;;;;;;;4.85;2.35;;;8.80;99.90;;;;;;4158223;28;20041;-84
2021/01/20 05:45:24;;;;;;;4.47;2.20;;;8.80;99.90;;;;;;4144531;28;20127;-84
2021/01/20 05:47:25;;;;;;;3.20;2.05;;;8.80;99.90;;;;;;4156518;28;20045;-84
2021/01/20 05:49:28;;;;;;;2.95;2.00;;;8.80;99.90;;;;;;4163761;28;20025;-84
2021/01/20 05:51:40;;;;;;;7.00;2.30;;;8.80;99.90;;;;;;4172641;28;20033;-84
2021/01/20 05:53:53;;;;;;;4.00;2.22;;;8.90;99.90;;;;;;4157944;28;20033;-84
2021/01/20 05:56:04;;;;;;;3.83;2.35;;;8.90;99.90;;;;;;4154860;28;20026;-83
2021/01/20 05:58:13;;;;;;;3.55;2.15;;;9.00;99.90;;;;;;4146536;28;20068;-84
2021/01/20 06:00:16;;;;;;;5.15;2.28;;;9.00;99.90;;;;;;4156214;28;20065;-84
2021/01/20 06:02:30;;;;;;;4.15;2.22;;;9.00;99.90;;;;;;4157892;28;20025;-84
2021/01/20 06:04:37;;;;;;;4.63;2.28;;;9.00;99.90;;;;;;4164763;28;20139;-84
2021/01/20 06:06:38;;;;;;;2.63;1.90;;;9.00;99.90;;;;;;4170753;28;20109;-84
2021/01/20 06:08:39;;;;;;;4.70;2.03;;;9.00;99.90;;;;;;4168588;28;20438;-84
2021/01/20 06:10:40;;;;;;;3.10;2.05;;;9.00;99.90;;;;;;4147447;28;20041;-84
2021/01/20 06:12:41;;;;;;;2.55;1.88;;;9.00;99.90;;;;;;4164240;28;20022;-84
2021/01/20 06:14:42;;;;;;;5.47;2.40;;;9.10;99.90;;;;;;4164229;28;20032;-84
2021/01/20 06:16:49;;;;;;;5.95;1.92;;;9.10;99.90;;;;;;4164320;28;20477;-84
2021/01/20 06:19:08;;;;;;;3.00;1.98;;;9.10;99.90;;;;;;4149792;28;20041;-84
2021/01/20 06:21:13;;;;;;;3.10;2.10;;;9.10;99.90;;;;;;4155051;28;20054;-84
2021/01/20 06:23:17;;;;;;;2.00;1.60;;;9.10;99.90;;;;;;4153378;28;20044;-84
2021/01/20 06:25:37;;;;;;;6.07;1.90;;;9.10;99.90;;;;;;4164011;28;20659;-84
2021/01/20 06:27:45;;;;;;;3.10;1.58;;;9.10;99.90;;;;;;4161349;28;20038;-84
2021/01/20 06:29:51;;;;;;;3.58;1.70;;;9.10;99.90;;;;;;4156269;28;20034;-84
2021/01/20 06:31:53;;;;;;;3.53;1.77;;;9.10;99.90;;;;;;4164734;28;20037;-84
2021/01/20 06:33:55;;;;;;;3.42;1.70;;;9.10;99.90;;;;;;4166441;28;20056;-84
2021/01/20 06:35:55;;;;;;;4.75;2.00;;;9.10;99.90;;;;;;4148369;28;20089;-84
2021/01/20 06:37:59;;;;;;;3.25;1.65;;;9.10;99.90;;;;;;4116708;28;20026;-84
2021/01/20 06:40:00;;;;;;;2.78;1.42;;;9.20;99.90;;;;;;4143448;28;20030;-84
2021/01/20 06:42:02;;;;;;;2.25;1.40;;;9.20;99.90;;;;;;4157667;28;20101;-84
2021/01/20 06:44:10;;;;;;;2.88;1.60;;;9.20;99.90;;;;;;4165062;28;20030;-84
2021/01/20 06:46:17;;;;;;;2.72;1.48;;;9.30;99.90;;;;;;4146452;28;20107;-84
2021/01/20 06:48:17;;;;;;;3.42;1.60;;;9.30;99.90;;;;;;4167342;28;20041;-84
2021/01/20 06:50:18;;;;;;;2.15;1.40;;;9.30;99.90;;;;;;4146766;28;20034;-84
2021/01/20 06:52:18;;;;;;;1.48;1.05;;;9.30;99.90;;;;;;4192774;28;20039;-84
2021/01/20 06:54:34;;;;;;;1.92;1.27;;;9.40;99.90;;;;;;4147132;28;20063;-84
2021/01/20 06:56:39;;;;;;;1.90;1.10;;;9.40;99.90;;;;;;4163163;28;20091;-84
2021/01/20 06:58:40;;;;;;;3.97;1.27;;;9.40;99.90;;;;;;4145748;28;20033;-84
2021/01/20 07:00:41;;;;;;;3.78;1.15;;;9.40;99.90;;;;;;4161785;28;20042;-84
2021/01/20 07:03:04;;;;;;;2.42;1.33;;;9.40;99.90;;;;;;4187158;28;20066;-84
2021/01/20 07:05:30;;;;;;;3.35;1.20;;;9.40;99.90;;;;;;4166377;28;20021;-84
2021/01/20 07:07:50;;;;;;;4.13;1.38;;;9.40;99.90;;;;;;4158469;28;20116;-84
2021/01/20 07:10:04;;;;;;;2.03;1.35;;;9.40;99.90;;;;;;4161290;28;20033;-84
2021/01/20 07:12:09;;;;;;;1.77;1.13;;;9.40;99.90;;;;;;4163799;28;20550;-84
2021/01/20 07:14:29;;;;;;;2.30;1.30;;;9.40;99.90;;;;;;4167931;28;20100;-84
2021/01/20 07:16:30;;;;;;;2.53;1.13;;;9.40;99.90;;;;;;4146556;28;20103;-84
2021/01/20 07:18:32;;;;;;;3.22;1.23;;;9.40;99.90;;;;;;4150621;28;20034;-84
2021/01/20 07:20:41;;;;;;;2.63;1.30;;;9.40;99.90;;;;;;4162630;28;20084;-84
2021/01/20 07:22:42;;;;;;;2.42;1.20;;;9.40;99.90;;;;;;4175543;28;22810;-84
2021/01/20 07:24:49;;;;;;;1.58;0.95;;;9.40;99.90;;;;;;4164612;28;20045;-84
2021/01/20 07:26:51;;;;;;;1.48;0.90;;;9.40;99.90;;;;;;4165177;28;20037;-84
2021/01/20 07:28:53;;;;;;;2.15;1.00;;;9.40;99.90;;;;;;4163254;28;20030;-84
2021/01/20 07:31:14;;;;;;;2.10;1.30;;;9.30;99.90;;;;;;4162644;28;20122;-84
2021/01/20 07:33:20;;;;;;;2.95;1.20;;;9.30;99.90;;;;;;4164473;28;20083;-84
2021/01/20 07:35:25;;;;;;;2.05;0.80;;;9.30;99.90;;;;;;4168806;28;20083;-84
2021/01/20 07:37:28;;;;;;;2.40;1.15;;;9.30;99.90;;;;;;4166414;28;20032;-84
2021/01/20 07:39:30;;;;;;;1.73;1.23;;;9.30;99.90;;;;;;4184823;28;20095;-84
2021/01/20 07:41:37;;;;;;;3.13;1.10;;;9.30;99.90;;;;;;4158517;28;20029;-84
2021/01/20 07:43:44;;;;;;;1.00;0.85;;;9.30;99.90;;;;;;4146587;28;20061;-84
2021/01/20 07:45:44;;;;;;;1.52;0.90;;;9.30;99.90;;;;;;4164750;28;20485;-84
2021/01/20 07:47:46;;;;;;;2.38;1.65;;;9.30;99.90;;;;;;4163475;28;20187;-84
2021/01/20 07:49:54;;;;;;;2.35;1.20;;;9.30;99.90;;;;;;4168237;28;20410;-84
2021/01/20 07:52:05;;;;;;;1.60;1.05;;;9.30;99.90;;;;;;4166298;28;20033;-84
2021/01/20 07:54:06;;;;;;;1.73;1.10;;;9.30;99.90;;;;;;4159404;28;20624;-84
2021/01/20 07:56:07;;;;;;;3.53;1.30;;;9.30;99.90;;;;;;4175876;28;20526;-84
2021/01/20 07:58:23;;;;;;;1.63;1.20;;;9.30;99.90;;;;;;4175236;28;20121;-84
2021/01/20 08:00:39;;;;;;;2.50;1.17;;;9.20;99.90;;;;;;4145923;28;20045;-84
2021/01/20 08:02:46;;;;;;;1.75;1.10;;;9.20;99.90;;;;;;4162417;28;20145;-84
2021/01/20 08:05:02;;;;;;;2.55;1.40;;;9.30;99.90;;;;;;4168598;28;20033;-84
2021/01/20 08:07:04;;;;;;;2.40;1.55;;;9.20;99.90;;;;;;4157612;28;20359;-84
2021/01/20 08:09:05;;;;;;;1.93;1.40;;;9.20;99.90;;;;;;4167104;28;20459;-84
2021/01/20 08:11:06;;;;;;;3.45;1.63;;;9.10;99.90;;;;;;4176509;28;20045;-84
2021/01/20 08:13:14;;;;;;;1.85;1.23;;;9.10;99.90;;;;;;4146515;28;20037;-84
2021/01/20 08:15:16;;;;;;;4.80;1.40;;;9.10;99.90;;;;;;4169418;28;20036;-84
2021/01/20 08:17:17;;;;;;;2.70;1.27;;;9.10;99.90;;;;;;4158602;28;20030;-84
2021/01/20 08:19:19;;;;;;;2.05;1.30;;;9.00;99.90;;;;;;4145693;28;20966;-84
2021/01/20 08:21:22;;;;;;;1.75;0.95;;;9.00;99.90;;;;;;4143406;28;20056;-84
2021/01/20 08:23:57;;;;;;;2.33;1.52;;;9.00;99.90;;;;;;4154240;28;20189;-84
2021/01/20 08:26:06;;;;;;;2.15;1.50;;;9.00;99.90;;;;;;4142918;28;20034;-83
2021/01/20 08:28:11;;;;;;;3.17;1.10;;;9.00;99.90;;;;;;4163554;28;20087;-83
2021/01/20 08:30:27;;;;;;;2.70;1.60;;;9.00;99.90;;;;;;4163584;28;20081;-84
2021/01/20 08:32:27;;;;;;;3.00;1.55;;;9.00;99.90;;;;;;4172841;28;20096;-84
2021/01/20 08:34:34;;;;;;;2.20;1.33;;;9.00;99.90;;;;;;4141951;28;20053;-84
2021/01/20 08:36:35;;;;;;;1.88;1.00;;;9.00;99.90;;;;;;4172840;28;20029;-84
2021/01/20 08:38:36;;;;;;;2.85;1.50;;;9.00;99.90;;;;;;4173707;28;20060;-84
2021/01/20 08:40:37;;;;;;;4.55;1.52;;;9.10;99.90;;;;;;4151178;28;20038;-84
2021/01/20 08:42:47;;;;;;;3.40;1.50;;;9.10;99.90;;;;;;4150515;28;20255;-84
2021/01/20 08:45:33;;;;;;;2.22;1.17;;;9.10;99.90;;;;;;4168581;28;20033;-84
2021/01/20 08:47:54;;;;;;;3.05;1.58;;;9.10;99.90;;;;;;4171869;28;20290;-84
2021/01/20 08:49:55;;;;;;;2.35;1.50;;;9.10;99.90;;;;;;4169969;28;20040;-84
2021/01/20 08:51:59;;;;;;;2.85;1.60;;;9.20;99.90;;;;;;4170439;28;20026;-84
2021/01/20 08:54:12;;;;;;;1.75;1.20;;;9.20;99.90;;;;;;4172756;28;20062;-83
2021/01/20 08:56:23;;;;;;;2.10;1.40;;;9.20;99.90;;;;;;4167326;28;20036;-83
2021/01/20 08:58:52;;;;;;;1.73;1.20;;;9.30;99.90;;;;;;4154973;28;20033;-84
2021/01/20 09:01:09;;;;;;;2.33;1.33;;;9.30;99.90;;;;;;4177331;28;20377;-84
2021/01/20 09:03:33;;;;;;;2.30;1.40;;;9.30;99.90;;;;;;4172470;28;20056;-84
2021/01/20 09:05:41;;;;;;;4.03;1.58;;;9.30;99.90;;;;;;4156708;28;20084;-84
2021/01/20 09:07:51;;;;;;;2.90;1.48;;;9.30;99.90;;;;;;4157479;28;20030;-84
2021/01/20 09:09:52;;;;;;;4.85;2.10;;;9.30;99.90;;;;;;4149215;28;20026;-84
2021/01/20 09:11:53;;;;;;;2.72;1.60;;;9.30;99.90;;;;;;4166900;28;20187;-83
2021/01/20 09:13:57;;;;;;;2.80;1.80;;;9.30;99.90;;;;;;4167963;28;20071;-84
2021/01/20 09:16:00;;;;;;;6.00;1.80;;;9.30;99.90;;;;;;4167287;28;20021;-83
2021/01/20 09:18:06;;;;;;;3.05;1.52;;;9.30;99.90;;;;;;4164784;28;20037;-83
2021/01/20 09:20:09;;;;;;;2.95;1.73;;;9.30;99.90;;;;;;4153143;28;20049;-84
2021/01/20 09:22:10;;;;;;;3.00;1.88;;;9.30;99.90;;;;;;4152575;28;20037;-84
2021/01/20 09:24:10;;;;;;;2.70;1.77;;;9.30;99.90;;;;;;4185312;28;20031;-84
2021/01/20 09:26:18;;;;;;;3.08;1.70;;;9.30;99.90;;;;;;4166810;28;20091;-84
2021/01/20 09:28:35;;;;;;;2.58;1.60;;;9.30;99.90;;;;;;4171687;28;20029;-84
2021/01/20 09:30:38;;;;;;;2.55;1.58;;;9.30;99.90;;;;;;4147228;28;20041;-84
2021/01/20 09:32:40;;;;;;;4.57;1.70;;;9.30;99.90;;;;;;4182684;28;20116;-84
2021/01/20 09:34:40;;;;;;;3.00;1.60;;;9.30;99.90;;;;;;4163747;28;20110;-84
2021/01/20 09:36:41;;;;;;;3.97;1.73;;;9.40;99.90;;;;;;4195281;28;20080;-83
2021/01/20 09:38:42;;;;;;;2.38;1.55;;;9.40;99.90;;;;;;4147410;28;20041;-84
2021/01/20 09:41:00;;;;;;;2.67;1.58;;;9.40;99.90;;;;;;4146826;28;20052;-83
2021/01/20 09:43:00;;;;;;;1.92;1.42;;;9.50;99.90;;;;;;4168532;28;20052;-84
2021/01/20 09:45:02;;;;;;;3.85;1.80;;;9.50;99.90;;;;;;4162957;28;20040;-84
2021/01/20 09:47:05;;;;;;;2.63;1.42;;;9.60;99.90;;;;;;4180883;28;20083;-84
2021/01/20 09:49:06;;;;;;;2.35;1.40;;;9.60;99.90;;;;;;4181382;28;20080;-84
2021/01/20 09:51:07;;;;;;;2.55;1.45;;;9.60;99.90;;;;;;4168416;28;20060;-84
2021/01/20 09:53:09;;;;;;;2.58;1.70;;;9.70;99.90;;;;;;4154475;28;20037;-84
2021/01/20 09:55:19;;;;;;;3.17;1.70;;;9.70;99.90;;;;;;4160854;28;20034;-84
2021/01/20 09:57:21;;;;;;;3.53;1.83;;;9.80;99.90;;;;;;4164197;28;20068;-84
2021/01/20 09:59:23;;;;;;;3.00;1.80;;;9.80;99.90;;;;;;4147842;28;20034;-84
2021/01/20 10:01:37;;;;;;;3.58;1.55;;;9.90;99.90;;;;;;4171792;28;20639;-84
2021/01/20 10:03:37;;;;;;;4.93;1.73;;;10.00;99.90;;;;;;4181529;28;20095;-84
2021/01/20 10:05:40;;;;;;;3.50;1.80;;;10.00;99.90;;;;;;4147490;28;20058;-83
2021/01/20 10:07:42;;;;;;;7.03;1.88;;;10.10;99.90;;;;;;4149579;28;20414;-83
2021/01/20 10:09:43;;;;;;;4.00;1.70;;;10.10;99.90;;;;;;4166742;28;20034;-84
2021/01/20 10:11:44;;;;;;;5.40;2.33;;;10.10;99.90;;;;;;4166788;28;20037;-84
2021/01/20 10:13:45;;;;;;;5.00;2.30;;;9.90;99.90;;;;;;4158759;28;20029;-84
2021/01/20 10:15:52;;;;;;;7.00;2.58;;;10.00;99.90;;;;;;4169588;28;20049;-83
2021/01/20 10:17:54;;;;;;;4.05;2.20;;;10.00;99.90;;;;;;4169422;28;20030;-84
2021/01/20 10:19:55;;;;;;;3.07;1.93;;;10.00;99.90;;;;;;4149793;28;20022;-83
2021/01/20 10:22:05;;;;;;;3.25;2.15;;;10.10;99.90;;;;;;4169453;28;20411;-84
2021/01/20 10:24:07;;;;;;;3.55;2.38;;;10.10;99.90;;;;;;4146610;28;20149;-84
2021/01/20 10:26:38;;;;;;;3.60;2.35;;;10.10;99.90;;;;;;4163847;28;20724;-83
2021/01/20 10:28:39;;;;;;;2.70;2.00;;;10.10;99.90;;;;;;4162609;28;20029;-84
2021/01/20 10:30:40;;;;;;;6.40;2.25;;;10.10;99.90;;;;;;4155496;28;20032;-84
2021/01/20 10:32:47;;;;;;;4.38;2.35;;;10.20;99.90;;;;;;4145859;28;20069;-84
2021/01/20 10:34:49;;;;;;;4.80;2.65;;;10.10;99.90;;;;;;4148966;28;20041;-84
2021/01/20 10:36:52;;;;;;;4.55;2.50;;;10.20;99.90;;;;;;4148787;28;20033;-84
2021/01/20 10:38:53;;;;;;;6.45;2.60;;;10.10;99.90;;;;;;4177156;28;20059;-84
2021/01/20 10:40:54;;;;;;;3.72;2.25;;;10.10;99.90;;;;;;4170530;28;20029;-83
2021/01/20 10:42:55;;;;;;;6.85;2.42;;;10.10;99.90;;;;;;4177498;28;20170;-83
2021/01/20 10:44:56;;;;;;;5.93;2.53;;;10.10;99.90;;;;;;4179414;28;20677;-83
2021/01/20 10:46:56;;;;;;;3.55;2.47;;;10.20;99.90;;;;;;4164515;28;20048;-83
2021/01/20 10:49:06;;;;;;;6.93;2.40;;;10.20;99.90;;;;;;4167260;28;20124;-83
2021/01/20 10:51:07;;;;;;;5.18;2.28;;;10.10;99.90;;;;;;4165986;28;20077;-83
2021/01/20 10:53:09;;;;;;;4.78;2.47;;;10.20;99.90;;;;;;4174976;28;20103;-84
2021/01/20 10:55:18;;;;;;;5.63;2.65;;;10.20;99.90;;;;;;4150664;28;20509;-84
2021/01/20 10:57:25;;;;;;;6.25;2.40;;;10.20;99.90;;;;;;4148540;28;20026;-84
2021/01/20 10:59:27;;;;;;;4.70;2.72;;;10.20;99.90;;;;;;4165440;28;20030;-83